sensor_id;sensor_type;location;lat;lon;timestamp;temperature;humidity
21261;DHT22;10788;47.930;9.766;2024-02-21T00:00:47;3.60;99.90
21261;DHT22;10788;47.930;9.766;2024-02-21T00:03:13;3.60;99.90
21261;DHT22;10788;47.930;9.766;2024-02-21T00:05:39;3.60;99.90
21261;DHT22;10788;47.930;9.766;2024-02-21T00:08:05;3.60;99.90
21261;DHT22;10788;47.930;9.766;2024-02-21T00:10:30;3.60;99.90
21261;DHT22;10788;47.930;9.766;2024-02-21T00:12:58;3.60;99.90
21261;DHT22;10788;47.930;9.766;2024-02-21T00:15:25;3.60;99.90
21261;DHT22;10788;47.930;9.766;2024-02-21T00:17:51;3.60;99.90
21261;DHT22;10788;47.930;9.766;2024-02-21T00:20:16;3.60;99.90
21261;DHT22;10788;47.930;9.766;2024-02-21T00:22:45;3.60;99.90
21261;DHT22;10788;47.930;9.766;2024-02-21T00:25:11;3.60;99.90
21261;DHT22;10788;47.930;9.766;2024-02-21T00:27:37;3.60;99.90
21261;DHT22;10788;47.930;9.766;2024-02-21T00:30:03;3.70;99.90
21261;DHT22;10788;47.930;9.766;2024-02-21T00:32:29;3.70;99.90
21261;DHT22;10788;47.930;9.766;2024-02-21T00:34:55;3.70;99.90
21261;DHT22;10788;47.930;9.766;2024-02-21T00:37:21;3.70;99.90
21261;DHT22;10788;47.930;9.766;2024-02-21T00:39:46;3.70;99.90
21261;DHT22;10788;47.930;9.766;2024-02-21T00:42:12;3.80;99.90
21261;DHT22;10788;47.930;9.766;2024-02-21T00:44:37;3.80;99.90
21261;DHT22;10788;47.930;9.766;2024-02-21T00:47:03;3.80;99.90
21261;DHT22;10788;47.930;9.766;2024-02-21T00:49:29;3.80;99.90
21261;DHT22;10788;47.930;9.766;2024-02-21T00:51:55;3.70;99.90
21261;DHT22;10788;47.930;9.766;2024-02-21T00:54:21;3.70;99.90
21261;DHT22;10788;47.930;9.766;2024-02-21T00:56:46;3.70;99.90
21261;DHT22;10788;47.930;9.766;2024-02-21T00:59:12;3.60;99.90
21261;DHT22;10788;47.930;9.766;2024-02-21T01:01:39;3.60;99.90
21261;DHT22;10788;47.930;9.766;2024-02-21T01:04:09;3.60;99.90
21261;DHT22;10788;47.930;9.766;2024-02-21T01:06:35;3.60;99.90
21261;DHT22;10788;47.930;9.766;2024-02-21T01:09:01;3.60;99.90
21261;DHT22;10788;47.930;9.766;2024-02-21T01:11:27;3.60;99.90
21261;DHT22;10788;47.930;9.766;2024-02-21T01:13:53;3.60;99.90
21261;DHT22;10788;47.930;9.766;2024-02-21T01:16:18;3.60;99.90
21261;DHT22;10788;47.930;9.766;2024-02-21T01:18:44;3.60;99.90
21261;DHT22;10788;47.930;9.766;2024-02-21T01:21:10;3.60;99.90
21261;DHT22;10788;47.930;9.766;2024-02-21T01:23:36;3.60;99.90
21261;DHT22;10788;47.930;9.766;2024-02-21T01:26:03;3.60;99.90
21261;DHT22;10788;47.930;9.766;2024-02-21T01:28:29;3.60;99.90
21261;DHT22;10788;47.930;9.766;2024-02-21T01:30:56;3.50;99.90
21261;DHT22;10788;47.930;9.766;2024-02-21T01:33:22;3.60;99.90
21261;DHT22;10788;47.930;9.766;2024-02-21T01:35:48;3.50;99.90
21261;DHT22;10788;47.930;9.766;2024-02-21T01:38:14;3.50;99.90
21261;DHT22;10788;47.930;9.766;2024-02-21T01:40:40;3.50;99.90
21261;DHT22;10788;47.930;9.766;2024-02-21T01:43:19;3.50;99.90
21261;DHT22;10788;47.930;9.766;2024-02-21T01:45:53;3.50;99.90
21261;DHT22;10788;47.930;9.766;2024-02-21T01:48:19;3.50;99.90
21261;DHT22;10788;47.930;9.766;2024-02-21T01:50:55;3.50;99.90
21261;DHT22;10788;47.930;9.766;2024-02-21T01:53:25;3.50;99.90
21261;DHT22;10788;47.930;9.766;2024-02-21T01:55:52;3.50;99.90
21261;DHT22;10788;47.930;9.766;2024-02-21T01:58:18;3.50;99.90
21261;DHT22;10788;47.930;9.766;2024-02-21T02:00:45;3.50;99.90
21261;DHT22;10788;47.930;9.766;2024-02-21T02:03:13;3.50;99.90
21261;DHT22;10788;47.930;9.766;2024-02-21T02:08:14;3.50;99.90
21261;DHT22;10788;47.930;9.766;2024-02-21T02:10:41;3.50;99.90
21261;DHT22;10788;47.930;9.766;2024-02-21T02:13:07;3.40;99.90
21261;DHT22;10788;47.930;9.766;2024-02-21T02:15:42;3.40;99.90
21261;DHT22;10788;47.930;9.766;2024-02-21T02:18:08;3.40;99.90
21261;DHT22;10788;47.930;9.766;2024-02-21T02:20:34;3.40;99.90
21261;DHT22;10788;47.930;9.766;2024-02-21T02:23:06;3.40;99.90
21261;DHT22;10788;47.930;9.766;2024-02-21T02:25:32;3.40;99.90
21261;DHT22;10788;47.930;9.766;2024-02-21T02:27:58;3.40;99.90
21261;DHT22;10788;47.930;9.766;2024-02-21T02:30:24;3.30;99.90
21261;DHT22;10788;47.930;9.766;2024-02-21T02:32:50;3.30;99.90
21261;DHT22;10788;47.930;9.766;2024-02-21T02:35:15;3.30;99.90
21261;DHT22;10788;47.930;9.766;2024-02-21T02:37:48;3.30;99.90
21261;DHT22;10788;47.930;9.766;2024-02-21T02:40:15;3.30;99.90
21261;DHT22;10788;47.930;9.766;2024-02-21T02:42:40;3.30;99.90
21261;DHT22;10788;47.930;9.766;2024-02-21T02:45:06;3.30;99.90
21261;DHT22;10788;47.930;9.766;2024-02-21T02:47:32;3.30;99.90
21261;DHT22;10788;47.930;9.766;2024-02-21T02:50:00;3.40;99.90
21261;DHT22;10788;47.930;9.766;2024-02-21T02:52:26;3.30;99.90
21261;DHT22;10788;47.930;9.766;2024-02-21T02:54:51;3.40;99.90
21261;DHT22;10788;47.930;9.766;2024-02-21T02:57:19;3.40;99.90
21261;DHT22;10788;47.930;9.766;2024-02-21T02:59:48;3.40;99.90
21261;DHT22;10788;47.930;9.766;2024-02-21T03:02:14;3.40;99.90
21261;DHT22;10788;47.930;9.766;2024-02-21T03:04:40;3.40;99.90
21261;DHT22;10788;47.930;9.766;2024-02-21T03:07:06;3.40;99.90
21261;DHT22;10788;47.930;9.766;2024-02-21T03:09:32;3.40;99.90
21261;DHT22;10788;47.930;9.766;2024-02-21T03:11:58;3.40;99.90
21261;DHT22;10788;47.930;9.766;2024-02-21T03:14:31;3.40;99.90
21261;DHT22;10788;47.930;9.766;2024-02-21T03:17:00;3.40;99.90
21261;DHT22;10788;47.930;9.766;2024-02-21T03:19:26;3.30;99.90
21261;DHT22;10788;47.930;9.766;2024-02-21T03:21:52;3.30;99.90
21261;DHT22;10788;47.930;9.766;2024-02-21T03:24:18;3.30;99.90
21261;DHT22;10788;47.930;9.766;2024-02-21T03:26:44;3.30;99.90
21261;DHT22;10788;47.930;9.766;2024-02-21T03:29:12;3.30;99.90
21261;DHT22;10788;47.930;9.766;2024-02-21T03:31:38;3.40;99.90
21261;DHT22;10788;47.930;9.766;2024-02-21T03:34:04;3.40;99.90
21261;DHT22;10788;47.930;9.766;2024-02-21T03:36:30;3.40;99.90
21261;DHT22;10788;47.930;9.766;2024-02-21T03:38:55;3.40;99.90
21261;DHT22;10788;47.930;9.766;2024-02-21T03:41:21;3.40;99.90
21261;DHT22;10788;47.930;9.766;2024-02-21T03:43:47;3.40;99.90
21261;DHT22;10788;47.930;9.766;2024-02-21T03:46:14;3.30;99.90
21261;DHT22;10788;47.930;9.766;2024-02-21T03:48:41;3.30;99.90
21261;DHT22;10788;47.930;9.766;2024-02-21T03:51:07;3.30;99.90
21261;DHT22;10788;47.930;9.766;2024-02-21T03:53:32;3.30;99.90
21261;DHT22;10788;47.930;9.766;2024-02-21T03:56:01;3.30;99.90
21261;DHT22;10788;47.930;9.766;2024-02-21T03:58:32;3.30;99.90
21261;DHT22;10788;47.930;9.766;2024-02-21T04:01:00;3.30;99.90
21261;DHT22;10788;47.930;9.766;2024-02-21T04:03:30;3.30;99.90
21261;DHT22;10788;47.930;9.766;2024-02-21T04:05:56;3.30;99.90
21261;DHT22;10788;47.930;9.766;2024-02-21T04:08:22;3.40;99.90
21261;DHT22;10788;47.930;9.766;2024-02-21T04:10:48;3.30;99.90
21261;DHT22;10788;47.930;9.766;2024-02-21T04:13:14;3.40;99.90
21261;DHT22;10788;47.930;9.766;2024-02-21T04:15:40;3.40;99.90
21261;DHT22;10788;47.930;9.766;2024-02-21T04:18:06;3.50;99.90
21261;DHT22;10788;47.930;9.766;2024-02-21T04:20:31;3.50;99.90
21261;DHT22;10788;47.930;9.766;2024-02-21T04:22:57;3.50;99.90
21261;DHT22;10788;47.930;9.766;2024-02-21T04:25:23;3.60;99.90
21261;DHT22;10788;47.930;9.766;2024-02-21T04:27:49;3.60;99.90
21261;DHT22;10788;47.930;9.766;2024-02-21T04:30:15;3.60;99.90
21261;DHT22;10788;47.930;9.766;2024-02-21T04:32:41;3.60;99.90
21261;DHT22;10788;47.930;9.766;2024-02-21T04:35:07;3.50;99.90
21261;DHT22;10788;47.930;9.766;2024-02-21T04:37:33;3.50;99.90
21261;DHT22;10788;47.930;9.766;2024-02-21T04:39:59;3.50;99.90
21261;DHT22;10788;47.930;9.766;2024-02-21T04:42:25;3.40;99.90
21261;DHT22;10788;47.930;9.766;2024-02-21T04:44:50;3.50;99.90
21261;DHT22;10788;47.930;9.766;2024-02-21T04:47:16;3.40;99.90
21261;DHT22;10788;47.930;9.766;2024-02-21T04:49:42;3.50;99.90
21261;DHT22;10788;47.930;9.766;2024-02-21T04:52:07;3.50;99.90
21261;DHT22;10788;47.930;9.766;2024-02-21T04:54:34;3.40;99.90
21261;DHT22;10788;47.930;9.766;2024-02-21T04:57:01;3.50;99.90
21261;DHT22;10788;47.930;9.766;2024-02-21T04:59:26;3.50;99.90
21261;DHT22;10788;47.930;9.766;2024-02-21T05:01:52;3.50;99.90
21261;DHT22;10788;47.930;9.766;2024-02-21T05:04:18;3.50;99.90
21261;DHT22;10788;47.930;9.766;2024-02-21T05:06:44;3.50;99.90
21261;DHT22;10788;47.930;9.766;2024-02-21T05:09:10;3.60;99.90
21261;DHT22;10788;47.930;9.766;2024-02-21T05:11:36;3.60;99.90
21261;DHT22;10788;47.930;9.766;2024-02-21T05:14:03;3.60;99.90
21261;DHT22;10788;47.930;9.766;2024-02-21T05:16:29;3.60;99.90
21261;DHT22;10788;47.930;9.766;2024-02-21T05:18:55;3.60;99.90
21261;DHT22;10788;47.930;9.766;2024-02-21T05:21:23;3.50;99.90
21261;DHT22;10788;47.930;9.766;2024-02-21T05:23:53;3.50;99.90
21261;DHT22;10788;47.930;9.766;2024-02-21T05:26:24;3.40;99.90
21261;DHT22;10788;47.930;9.766;2024-02-21T05:28:50;3.40;99.90
21261;DHT22;10788;47.930;9.766;2024-02-21T05:31:17;3.40;99.90
21261;DHT22;10788;47.930;9.766;2024-02-21T05:33:44;3.40;99.90
21261;DHT22;10788;47.930;9.766;2024-02-21T05:36:10;3.40;99.90
21261;DHT22;10788;47.930;9.766;2024-02-21T05:38:36;3.40;99.90
21261;DHT22;10788;47.930;9.766;2024-02-21T05:41:02;3.40;99.90
21261;DHT22;10788;47.930;9.766;2024-02-21T05:43:28;3.40;99.90
21261;DHT22;10788;47.930;9.766;2024-02-21T05:45:53;3.40;99.90
21261;DHT22;10788;47.930;9.766;2024-02-21T05:48:20;3.50;99.90
21261;DHT22;10788;47.930;9.766;2024-02-21T05:50:46;3.50;99.90
21261;DHT22;10788;47.930;9.766;2024-02-21T05:53:11;3.50;99.90
21261;DHT22;10788;47.930;9.766;2024-02-21T05:55:38;3.50;99.90
21261;DHT22;10788;47.930;9.766;2024-02-21T05:58:04;3.40;99.90
21261;DHT22;10788;47.930;9.766;2024-02-21T06:00:31;3.40;99.90
21261;DHT22;10788;47.930;9.766;2024-02-21T06:02:57;3.40;99.90
21261;DHT22;10788;47.930;9.766;2024-02-21T06:05:23;3.30;99.90
21261;DHT22;10788;47.930;9.766;2024-02-21T06:07:48;3.30;99.90
21261;DHT22;10788;47.930;9.766;2024-02-21T06:10:14;3.20;99.90
21261;DHT22;10788;47.930;9.766;2024-02-21T06:12:39;3.10;99.90
21261;DHT22;10788;47.930;9.766;2024-02-21T06:15:06;3.10;99.90
21261;DHT22;10788;47.930;9.766;2024-02-21T06:17:31;3.20;99.90
21261;DHT22;10788;47.930;9.766;2024-02-21T06:19:57;3.20;99.90
21261;DHT22;10788;47.930;9.766;2024-02-21T06:22:23;3.20;99.90
21261;DHT22;10788;47.930;9.766;2024-02-21T06:24:49;3.20;99.90
21261;DHT22;10788;47.930;9.766;2024-02-21T06:27:15;3.20;99.90
21261;DHT22;10788;47.930;9.766;2024-02-21T06:29:41;3.20;99.90
21261;DHT22;10788;47.930;9.766;2024-02-21T06:32:07;3.20;99.90
21261;DHT22;10788;47.930;9.766;2024-02-21T06:34:33;3.20;99.90
21261;DHT22;10788;47.930;9.766;2024-02-21T06:36:58;3.30;99.90
21261;DHT22;10788;47.930;9.766;2024-02-21T06:39:24;3.20;99.90
21261;DHT22;10788;47.930;9.766;2024-02-21T06:41:50;3.30;99.90
21261;DHT22;10788;47.930;9.766;2024-02-21T06:44:17;3.40;99.90
21261;DHT22;10788;47.930;9.766;2024-02-21T06:46:43;3.30;99.90
21261;DHT22;10788;47.930;9.766;2024-02-21T06:49:08;3.30;99.90
21261;DHT22;10788;47.930;9.766;2024-02-21T06:51:34;3.30;99.90
21261;DHT22;10788;47.930;9.766;2024-02-21T06:54:00;3.40;99.90
21261;DHT22;10788;47.930;9.766;2024-02-21T06:56:26;3.50;99.90
21261;DHT22;10788;47.930;9.766;2024-02-21T06:58:54;3.40;99.90
21261;DHT22;10788;47.930;9.766;2024-02-21T07:01:20;3.40;99.90
21261;DHT22;10788;47.930;9.766;2024-02-21T07:03:46;3.50;99.90
21261;DHT22;10788;47.930;9.766;2024-02-21T07:06:11;3.50;99.90
21261;DHT22;10788;47.930;9.766;2024-02-21T07:08:38;3.50;99.90
21261;DHT22;10788;47.930;9.766;2024-02-21T07:11:04;3.60;99.90
21261;DHT22;10788;47.930;9.766;2024-02-21T07:13:30;3.60;99.90
21261;DHT22;10788;47.930;9.766;2024-02-21T07:15:56;3.70;99.90
21261;DHT22;10788;47.930;9.766;2024-02-21T07:18:21;3.70;99.90
21261;DHT22;10788;47.930;9.766;2024-02-21T07:20:47;3.80;99.90
21261;DHT22;10788;47.930;9.766;2024-02-21T07:23:13;3.90;99.90
21261;DHT22;10788;47.930;9.766;2024-02-21T07:25:38;3.90;99.90
21261;DHT22;10788;47.930;9.766;2024-02-21T07:28:05;4.00;99.90
21261;DHT22;10788;47.930;9.766;2024-02-21T07:30:32;4.00;99.90
21261;DHT22;10788;47.930;9.766;2024-02-21T07:32:57;4.00;99.90
21261;DHT22;10788;47.930;9.766;2024-02-21T07:35:23;4.00;99.90
21261;DHT22;10788;47.930;9.766;2024-02-21T07:37:49;4.10;99.90
21261;DHT22;10788;47.930;9.766;2024-02-21T07:40:16;4.10;99.90
21261;DHT22;10788;47.930;9.766;2024-02-21T07:42:42;4.10;99.90
21261;DHT22;10788;47.930;9.766;2024-02-21T07:45:08;4.20;99.90
21261;DHT22;10788;47.930;9.766;2024-02-21T07:47:34;4.30;99.90
21261;DHT22;10788;47.930;9.766;2024-02-21T07:50:02;4.30;99.90
21261;DHT22;10788;47.930;9.766;2024-02-21T07:52:28;4.50;99.90
21261;DHT22;10788;47.930;9.766;2024-02-21T07:54:53;4.70;99.90
21261;DHT22;10788;47.930;9.766;2024-02-21T07:57:19;4.90;99.90
21261;DHT22;10788;47.930;9.766;2024-02-21T07:59:45;5.20;99.90
21261;DHT22;10788;47.930;9.766;2024-02-21T08:02:16;5.50;99.90
21261;DHT22;10788;47.930;9.766;2024-02-21T08:04:42;5.80;99.90
21261;DHT22;10788;47.930;9.766;2024-02-21T08:07:08;6.10;99.90
21261;DHT22;10788;47.930;9.766;2024-02-21T08:09:34;6.40;99.90
21261;DHT22;10788;47.930;9.766;2024-02-21T08:12:00;6.60;99.90
21261;DHT22;10788;47.930;9.766;2024-02-21T08:14:26;6.90;99.90
21261;DHT22;10788;47.930;9.766;2024-02-21T08:16:52;7.20;99.90
21261;DHT22;10788;47.930;9.766;2024-02-21T08:19:21;7.30;99.90
21261;DHT22;10788;47.930;9.766;2024-02-21T08:21:50;7.40;99.90
21261;DHT22;10788;47.930;9.766;2024-02-21T08:24:15;7.60;99.90
21261;DHT22;10788;47.930;9.766;2024-02-21T08:26:42;7.70;99.90
21261;DHT22;10788;47.930;9.766;2024-02-21T08:29:08;7.70;99.90
21261;DHT22;10788;47.930;9.766;2024-02-21T08:31:33;7.60;99.90
21261;DHT22;10788;47.930;9.766;2024-02-21T08:34:00;7.60;99.90
21261;DHT22;10788;47.930;9.766;2024-02-21T08:36:34;7.60;99.90
21261;DHT22;10788;47.930;9.766;2024-02-21T08:39:00;7.70;99.90
21261;DHT22;10788;47.930;9.766;2024-02-21T08:41:26;7.80;99.90
21261;DHT22;10788;47.930;9.766;2024-02-21T08:43:53;7.80;99.90
21261;DHT22;10788;47.930;9.766;2024-02-21T08:46:22;7.80;99.90
21261;DHT22;10788;47.930;9.766;2024-02-21T08:48:50;7.60;99.90
21261;DHT22;10788;47.930;9.766;2024-02-21T08:51:17;7.50;99.90
21261;DHT22;10788;47.930;9.766;2024-02-21T08:53:44;7.50;99.90
21261;DHT22;10788;47.930;9.766;2024-02-21T08:56:10;7.50;99.90
21261;DHT22;10788;47.930;9.766;2024-02-21T08:58:42;7.60;99.90
21261;DHT22;10788;47.930;9.766;2024-02-21T09:01:08;7.60;99.90
21261;DHT22;10788;47.930;9.766;2024-02-21T09:03:37;7.70;99.90
21261;DHT22;10788;47.930;9.766;2024-02-21T09:06:07;7.90;99.90
21261;DHT22;10788;47.930;9.766;2024-02-21T09:08:33;8.00;99.90
21261;DHT22;10788;47.930;9.766;2024-02-21T09:11:00;8.00;99.90
21261;DHT22;10788;47.930;9.766;2024-02-21T09:13:27;7.90;99.90
21261;DHT22;10788;47.930;9.766;2024-02-21T09:15:52;7.80;99.90
21261;DHT22;10788;47.930;9.766;2024-02-21T09:18:18;7.90;99.90
21261;DHT22;10788;47.930;9.766;2024-02-21T09:20:44;7.80;99.90
21261;DHT22;10788;47.930;9.766;2024-02-21T09:23:10;7.80;99.90
21261;DHT22;10788;47.930;9.766;2024-02-21T09:25:36;7.80;99.90
21261;DHT22;10788;47.930;9.766;2024-02-21T09:28:02;7.80;99.90
21261;DHT22;10788;47.930;9.766;2024-02-21T09:30:28;7.80;99.90
21261;DHT22;10788;47.930;9.766;2024-02-21T09:32:54;7.80;99.90
21261;DHT22;10788;47.930;9.766;2024-02-21T09:35:20;7.80;99.90
21261;DHT22;10788;47.930;9.766;2024-02-21T09:37:48;7.90;99.90
21261;DHT22;10788;47.930;9.766;2024-02-21T09:40:18;7.90;99.90
21261;DHT22;10788;47.930;9.766;2024-02-21T09:42:44;8.00;99.90
21261;DHT22;10788;47.930;9.766;2024-02-21T09:50:17;8.10;99.90
21261;DHT22;10788;47.930;9.766;2024-02-21T09:52:44;8.10;99.90
21261;DHT22;10788;47.930;9.766;2024-02-21T09:55:10;8.10;99.90
21261;DHT22;10788;47.930;9.766;2024-02-21T09:57:38;8.20;99.90
21261;DHT22;10788;47.930;9.766;2024-02-21T10:00:05;8.30;99.90
21261;DHT22;10788;47.930;9.766;2024-02-21T10:02:34;8.30;99.90
21261;DHT22;10788;47.930;9.766;2024-02-21T10:04:59;8.40;99.90
21261;DHT22;10788;47.930;9.766;2024-02-21T10:07:25;8.40;99.90
21261;DHT22;10788;47.930;9.766;2024-02-21T10:10:01;8.40;99.90
21261;DHT22;10788;47.930;9.766;2024-02-21T10:12:27;8.50;99.90
21261;DHT22;10788;47.930;9.766;2024-02-21T10:15:02;8.50;99.90
21261;DHT22;10788;47.930;9.766;2024-02-21T10:17:28;8.60;99.90
21261;DHT22;10788;47.930;9.766;2024-02-21T10:19:54;8.70;99.90
21261;DHT22;10788;47.930;9.766;2024-02-21T10:22:20;8.70;99.90
21261;DHT22;10788;47.930;9.766;2024-02-21T10:24:50;8.80;99.90
21261;DHT22;10788;47.930;9.766;2024-02-21T10:27:16;8.90;99.90
21261;DHT22;10788;47.930;9.766;2024-02-21T10:29:42;9.10;99.90
21261;DHT22;10788;47.930;9.766;2024-02-21T10:32:12;9.10;99.90
21261;DHT22;10788;47.930;9.766;2024-02-21T10:34:39;9.10;99.90
21261;DHT22;10788;47.930;9.766;2024-02-21T10:37:10;9.20;99.90
21261;DHT22;10788;47.930;9.766;2024-02-21T10:39:40;9.30;99.90
21261;DHT22;10788;47.930;9.766;2024-02-21T10:42:06;9.40;99.90
21261;DHT22;10788;47.930;9.766;2024-02-21T10:44:36;9.40;99.90
21261;DHT22;10788;47.930;9.766;2024-02-21T10:47:09;9.50;99.90
21261;DHT22;10788;47.930;9.766;2024-02-21T10:49:41;9.60;99.90
21261;DHT22;10788;47.930;9.766;2024-02-21T10:57:22;10.00;99.90
21261;DHT22;10788;47.930;9.766;2024-02-21T10:59:49;10.10;99.90
21261;DHT22;10788;47.930;9.766;2024-02-21T11:02:15;10.00;99.90
21261;DHT22;10788;47.930;9.766;2024-02-21T11:04:42;9.90;99.90
21261;DHT22;10788;47.930;9.766;2024-02-21T11:07:08;9.80;99.90
21261;DHT22;10788;47.930;9.766;2024-02-21T11:09:34;9.80;99.90
21261;DHT22;10788;47.930;9.766;2024-02-21T11:12:05;9.80;99.90
21261;DHT22;10788;47.930;9.766;2024-02-21T11:14:32;9.70;99.90
21261;DHT22;10788;47.930;9.766;2024-02-21T11:16:58;9.80;99.90
21261;DHT22;10788;47.930;9.766;2024-02-21T11:19:28;9.70;99.90
21261;DHT22;10788;47.930;9.766;2024-02-21T11:21:55;9.80;99.90
21261;DHT22;10788;47.930;9.766;2024-02-21T11:24:32;9.80;99.90
21261;DHT22;10788;47.930;9.766;2024-02-21T11:27:15;9.80;99.90
21261;DHT22;10788;47.930;9.766;2024-02-21T11:29:43;9.80;99.90
21261;DHT22;10788;47.930;9.766;2024-02-21T11:32:10;9.70;99.90
21261;DHT22;10788;47.930;9.766;2024-02-21T11:34:37;9.80;99.90
21261;DHT22;10788;47.930;9.766;2024-02-21T11:37:13;9.80;99.90
21261;DHT22;10788;47.930;9.766;2024-02-21T11:39:41;9.80;99.90
21261;DHT22;10788;47.930;9.766;2024-02-21T11:42:07;9.80;99.90
21261;DHT22;10788;47.930;9.766;2024-02-21T11:44:37;9.80;99.90
21261;DHT22;10788;47.930;9.766;2024-02-21T11:47:08;9.80;99.90
21261;DHT22;10788;47.930;9.766;2024-02-21T11:49:47;9.70;99.90
21261;DHT22;10788;47.930;9.766;2024-02-21T11:52:14;9.70;99.90
21261;DHT22;10788;47.930;9.766;2024-02-21T11:54:45;9.80;99.90
21261;DHT22;10788;47.930;9.766;2024-02-21T11:57:11;9.90;99.90
21261;DHT22;10788;47.930;9.766;2024-02-21T11:59:40;9.90;99.90
21261;DHT22;10788;47.930;9.766;2024-02-21T12:02:06;9.90;99.90
21261;DHT22;10788;47.930;9.766;2024-02-21T12:04:33;9.90;99.90
21261;DHT22;10788;47.930;9.766;2024-02-21T12:06:59;9.90;99.90
21261;DHT22;10788;47.930;9.766;2024-02-21T12:09:25;9.90;99.90
21261;DHT22;10788;47.930;9.766;2024-02-21T12:12:02;9.80;99.90
21261;DHT22;10788;47.930;9.766;2024-02-21T12:14:29;9.70;99.90
21261;DHT22;10788;47.930;9.766;2024-02-21T12:16:59;9.70;99.90
21261;DHT22;10788;47.930;9.766;2024-02-21T12:19:25;9.90;99.90
21261;DHT22;10788;47.930;9.766;2024-02-21T12:21:51;9.90;99.90
21261;DHT22;10788;47.930;9.766;2024-02-21T12:24:26;9.90;99.90
21261;DHT22;10788;47.930;9.766;2024-02-21T12:26:53;10.00;99.90
21261;DHT22;10788;47.930;9.766;2024-02-21T12:29:20;10.00;99.90
21261;DHT22;10788;47.930;9.766;2024-02-21T12:31:46;10.10;99.90
21261;DHT22;10788;47.930;9.766;2024-02-21T12:34:13;10.10;99.90
21261;DHT22;10788;47.930;9.766;2024-02-21T12:36:45;10.20;99.90
21261;DHT22;10788;47.930;9.766;2024-02-21T12:39:14;10.20;99.90
21261;DHT22;10788;47.930;9.766;2024-02-21T12:41:40;10.30;99.90
21261;DHT22;10788;47.930;9.766;2024-02-21T12:44:08;10.30;99.90
21261;DHT22;10788;47.930;9.766;2024-02-21T12:46:34;10.30;99.90
21261;DHT22;10788;47.930;9.766;2024-02-21T12:49:01;10.40;99.90
21261;DHT22;10788;47.930;9.766;2024-02-21T12:51:26;10.50;99.90
21261;DHT22;10788;47.930;9.766;2024-02-21T12:53:52;10.40;99.90
21261;DHT22;10788;47.930;9.766;2024-02-21T12:56:18;10.40;99.90
21261;DHT22;10788;47.930;9.766;2024-02-21T12:58:44;10.50;99.90
21261;DHT22;10788;47.930;9.766;2024-02-21T13:01:10;10.40;99.90
21261;DHT22;10788;47.930;9.766;2024-02-21T13:03:36;10.40;99.90
21261;DHT22;10788;47.930;9.766;2024-02-21T13:06:01;10.40;99.90
21261;DHT22;10788;47.930;9.766;2024-02-21T13:08:27;10.40;99.90
21261;DHT22;10788;47.930;9.766;2024-02-21T13:10:53;10.40;99.90
21261;DHT22;10788;47.930;9.766;2024-02-21T13:13:19;10.40;99.90
21261;DHT22;10788;47.930;9.766;2024-02-21T13:15:44;10.40;99.90
21261;DHT22;10788;47.930;9.766;2024-02-21T13:18:10;10.40;99.90
21261;DHT22;10788;47.930;9.766;2024-02-21T13:20:36;10.40;99.90
21261;DHT22;10788;47.930;9.766;2024-02-21T13:23:03;10.40;99.90
21261;DHT22;10788;47.930;9.766;2024-02-21T13:25:29;10.40;99.90
21261;DHT22;10788;47.930;9.766;2024-02-21T13:27:55;10.40;99.90
21261;DHT22;10788;47.930;9.766;2024-02-21T13:30:22;10.40;99.90
21261;DHT22;10788;47.930;9.766;2024-02-21T13:32:48;10.40;99.90
21261;DHT22;10788;47.930;9.766;2024-02-21T13:35:14;10.50;99.90
21261;DHT22;10788;47.930;9.766;2024-02-21T13:37:43;10.50;99.90
21261;DHT22;10788;47.930;9.766;2024-02-21T13:40:09;10.40;99.90
21261;DHT22;10788;47.930;9.766;2024-02-21T13:42:36;10.40;99.90
21261;DHT22;10788;47.930;9.766;2024-02-21T13:45:02;10.50;99.90
21261;DHT22;10788;47.930;9.766;2024-02-21T13:47:28;10.40;99.90
21261;DHT22;10788;47.930;9.766;2024-02-21T13:49:54;10.40;99.90
21261;DHT22;10788;47.930;9.766;2024-02-21T13:52:21;10.40;99.90
21261;DHT22;10788;47.930;9.766;2024-02-21T13:54:47;10.40;99.90
21261;DHT22;10788;47.930;9.766;2024-02-21T13:57:13;10.50;99.90
21261;DHT22;10788;47.930;9.766;2024-02-21T13:59:40;10.50;99.90
21261;DHT22;10788;47.930;9.766;2024-02-21T14:02:06;10.40;99.90
21261;DHT22;10788;47.930;9.766;2024-02-21T14:04:35;10.40;99.90
21261;DHT22;10788;47.930;9.766;2024-02-21T14:07:00;10.40;99.90
21261;DHT22;10788;47.930;9.766;2024-02-21T14:09:27;10.40;99.90
21261;DHT22;10788;47.930;9.766;2024-02-21T14:11:54;10.40;99.90
21261;DHT22;10788;47.930;9.766;2024-02-21T14:14:20;10.40;99.90
21261;DHT22;10788;47.930;9.766;2024-02-21T14:16:45;10.40;99.90
21261;DHT22;10788;47.930;9.766;2024-02-21T14:19:13;10.50;99.90
21261;DHT22;10788;47.930;9.766;2024-02-21T14:21:39;10.50;99.90
21261;DHT22;10788;47.930;9.766;2024-02-21T14:24:05;10.40;99.90
21261;DHT22;10788;47.930;9.766;2024-02-21T14:26:31;10.40;99.90
21261;DHT22;10788;47.930;9.766;2024-02-21T14:28:58;10.40;99.90
21261;DHT22;10788;47.930;9.766;2024-02-21T14:31:24;10.30;99.90
21261;DHT22;10788;47.930;9.766;2024-02-21T14:33:50;10.30;99.90
21261;DHT22;10788;47.930;9.766;2024-02-21T14:36:16;10.20;99.90
21261;DHT22;10788;47.930;9.766;2024-02-21T14:38:42;10.30;99.90
21261;DHT22;10788;47.930;9.766;2024-02-21T14:41:09;10.20;99.90
21261;DHT22;10788;47.930;9.766;2024-02-21T14:43:37;10.20;99.90
21261;DHT22;10788;47.930;9.766;2024-02-21T14:46:04;10.20;99.90
21261;DHT22;10788;47.930;9.766;2024-02-21T14:48:34;10.20;99.90
21261;DHT22;10788;47.930;9.766;2024-02-21T14:51:00;10.10;99.90
21261;DHT22;10788;47.930;9.766;2024-02-21T14:53:25;10.10;99.90
21261;DHT22;10788;47.930;9.766;2024-02-21T14:55:51;10.10;99.90
21261;DHT22;10788;47.930;9.766;2024-02-21T14:58:17;10.10;99.90
21261;DHT22;10788;47.930;9.766;2024-02-21T15:00:45;10.10;99.90
21261;DHT22;10788;47.930;9.766;2024-02-21T15:03:12;10.10;99.90
21261;DHT22;10788;47.930;9.766;2024-02-21T15:05:41;10.10;99.90
21261;DHT22;10788;47.930;9.766;2024-02-21T15:08:07;10.10;99.90
21261;DHT22;10788;47.930;9.766;2024-02-21T15:10:36;10.10;99.90
21261;DHT22;10788;47.930;9.766;2024-02-21T15:13:02;10.10;99.90
21261;DHT22;10788;47.930;9.766;2024-02-21T15:15:28;10.00;99.90
21261;DHT22;10788;47.930;9.766;2024-02-21T15:17:54;10.10;99.90
21261;DHT22;10788;47.930;9.766;2024-02-21T15:20:20;10.10;99.90
21261;DHT22;10788;47.930;9.766;2024-02-21T15:22:46;10.00;99.90
21261;DHT22;10788;47.930;9.766;2024-02-21T15:25:11;10.00;99.90
21261;DHT22;10788;47.930;9.766;2024-02-21T15:27:44;10.00;99.90
21261;DHT22;10788;47.930;9.766;2024-02-21T15:30:11;9.90;99.90
21261;DHT22;10788;47.930;9.766;2024-02-21T15:32:41;9.90;99.90
21261;DHT22;10788;47.930;9.766;2024-02-21T15:35:10;9.90;99.90
21261;DHT22;10788;47.930;9.766;2024-02-21T15:37:39;9.90;99.90
21261;DHT22;10788;47.930;9.766;2024-02-21T15:40:05;9.90;99.90
21261;DHT22;10788;47.930;9.766;2024-02-21T15:42:33;9.90;99.90
21261;DHT22;10788;47.930;9.766;2024-02-21T15:44:59;9.90;99.90
21261;DHT22;10788;47.930;9.766;2024-02-21T15:47:30;9.90;99.90
21261;DHT22;10788;47.930;9.766;2024-02-21T15:49:57;9.90;99.90
21261;DHT22;10788;47.930;9.766;2024-02-21T15:52:24;9.90;99.90